createdAt,value
2023-05-23T00:01:07.157Z,99909.13
2023-05-23T00:03:34.825Z,99898.25
2023-05-23T00:06:04.529Z,99897.41
2023-05-23T00:08:31.974Z,99907.13
2023-05-23T00:10:59.402Z,99899.84
2023-05-23T00:13:26.871Z,99893.78
2023-05-23T00:15:54.376Z,99887.69
2023-05-23T00:18:21.853Z,99898.19
2023-05-23T00:20:49.358Z,99892.13
2023-05-23T00:23:20.744Z,99890.94
2023-05-23T00:25:53.438Z,99901.41
2023-05-23T00:28:22.277Z,99902.28
2023-05-23T00:30:50.006Z,99907.53
2023-05-23T00:33:17.725Z,99920.41
2023-05-23T00:35:45.216Z,99934.13
2023-05-23T00:38:12.646Z,99938.72
2023-05-23T00:40:41.651Z,99953.66
2023-05-23T00:43:09.233Z,99931.50
2023-05-23T00:45:36.756Z,99933.78
2023-05-23T00:48:06.193Z,99933.91
2023-05-23T00:50:33.717Z,99939.19
2023-05-23T00:53:02.552Z,99947.25
2023-05-23T00:55:31.120Z,99939.91
2023-05-23T00:58:00.173Z,99917.22
2023-05-23T01:00:28.037Z,99914.16
2023-05-23T01:02:55.722Z,99926.69
2023-05-23T01:05:24.885Z,99925.97
2023-05-23T01:07:52.901Z,99915.53
2023-05-23T01:10:22.925Z,99896.09
2023-05-23T01:13:07.715Z,99898.50
2023-05-23T01:15:41.470Z,99903.94
2023-05-23T01:18:14.381Z,99917.34
2023-05-23T01:20:46.626Z,99930.28
2023-05-23T01:23:40.430Z,99922.97
2023-05-23T01:26:26.211Z,99913.75
2023-05-23T01:28:57.178Z,99900.84
2023-05-23T01:31:28.253Z,99919.41
2023-05-23T01:33:56.873Z,99932.50
2023-05-23T01:36:24.322Z,99941.38
2023-05-23T01:38:51.792Z,99947.50
2023-05-23T01:41:19.209Z,99947.97
2023-05-23T01:43:48.028Z,99945.94
2023-05-23T01:46:17.737Z,99947.84
2023-05-23T01:48:46.409Z,99949.56
2023-05-23T01:51:14.900Z,99956.41
2023-05-23T01:53:43.168Z,99954.81
2023-05-23T01:56:10.863Z,99951.44
2023-05-23T01:58:38.484Z,99934.19
2023-05-23T02:01:06.146Z,99925.53
2023-05-23T02:03:35.357Z,99921.56
2023-05-23T02:06:03.059Z,99918.91
2023-05-23T02:08:30.464Z,99924.88
2023-05-23T02:10:57.919Z,99923.84
2023-05-23T02:13:25.412Z,99921.50
2023-05-23T02:15:52.885Z,99923.13
2023-05-23T02:18:21.476Z,99912.81
2023-05-23T02:20:50.718Z,99918.94
2023-05-23T02:23:18.156Z,99906.09
2023-05-23T02:25:45.626Z,99894.75
2023-05-23T02:28:13.695Z,99890.03
2023-05-23T02:30:41.114Z,99891.19
2023-05-23T02:33:09.099Z,99883.81
2023-05-23T02:35:36.626Z,99885.97
2023-05-23T02:38:05.700Z,99885.91
2023-05-23T02:40:33.134Z,99873.06
2023-05-23T02:43:00.756Z,99864.63
2023-05-23T02:45:28.196Z,99860.53
2023-05-23T02:47:55.896Z,99851.78
2023-05-23T02:50:23.404Z,99850.53
2023-05-23T02:52:50.837Z,99847.63
2023-05-23T02:55:19.683Z,99859.06
2023-05-23T02:57:47.238Z,99867.03
2023-05-23T03:00:15.622Z,99853.84
2023-05-23T03:02:43.550Z,99849.34
2023-05-23T03:05:11.056Z,99841.78
2023-05-23T03:07:38.587Z,99837.44
2023-05-23T03:10:07.320Z,99837.88
2023-05-23T03:12:37.038Z,99838.31
2023-05-23T03:15:05.460Z,99837.41
2023-05-23T03:17:33.089Z,99832.97
2023-05-23T03:20:00.661Z,99824.91
2023-05-23T03:22:28.262Z,99830.22
2023-05-23T03:24:55.969Z,99825.00
2023-05-23T03:27:23.560Z,99824.97
2023-05-23T03:29:52.472Z,99828.69
2023-05-23T03:32:20.037Z,99821.09
2023-05-23T03:34:47.760Z,99816.53
2023-05-23T03:37:15.328Z,99820.31
2023-05-23T03:39:42.881Z,99815.22
2023-05-23T03:42:10.443Z,99813.66
2023-05-23T03:44:37.979Z,99813.31
2023-05-23T03:47:07.379Z,99816.97
2023-05-23T03:49:34.996Z,99815.00
2023-05-23T03:52:02.634Z,99806.94
2023-05-23T03:54:30.162Z,99812.97
2023-05-23T03:56:57.774Z,99821.84
2023-05-23T03:59:25.357Z,99830.28
2023-05-23T04:01:52.917Z,99825.00
2023-05-23T04:04:22.043Z,99838.28
2023-05-23T04:06:49.608Z,99834.19
2023-05-23T04:09:17.243Z,99837.59
2023-05-23T04:11:45.171Z,99844.38
2023-05-23T04:14:13.699Z,99852.16
2023-05-23T04:16:42.710Z,99862.69
2023-05-23T04:19:10.686Z,99859.63
2023-05-23T04:21:39.525Z,99850.59
2023-05-23T04:24:08.231Z,99855.94
2023-05-23T04:26:36.375Z,99867.97
2023-05-23T04:29:04.448Z,99868.47
2023-05-23T04:31:33.879Z,99874.41
2023-05-23T04:34:02.400Z,99874.41
2023-05-23T04:36:30.206Z,99871.50
2023-05-23T04:38:59.023Z,99882.63
2023-05-23T04:41:26.772Z,99874.31
2023-05-23T04:43:54.707Z,99879.16
2023-05-23T04:46:26.677Z,99875.63
2023-05-23T04:48:55.033Z,99887.72
2023-05-23T04:51:22.835Z,99882.50
2023-05-23T04:53:50.632Z,99884.53
2023-05-23T04:56:21.795Z,99886.94
2023-05-23T04:58:49.554Z,99888.56
2023-05-23T05:01:17.056Z,99891.38
2023-05-23T05:03:44.502Z,99895.44
2023-05-23T05:06:12.103Z,99888.59
2023-05-23T05:08:40.649Z,99880.50
2023-05-23T05:11:08.152Z,99883.72
2023-05-23T05:13:37.097Z,99881.69
2023-05-23T05:16:04.618Z,99896.63
2023-05-23T05:18:32.184Z,99871.16
2023-05-23T05:20:59.678Z,99885.66
2023-05-23T05:23:28.810Z,99875.53
2023-05-23T05:25:57.229Z,99889.41
2023-05-23T05:28:24.676Z,99880.59
2023-05-23T05:30:54.395Z,99884.38
2023-05-23T05:33:23.567Z,99889.16
2023-05-23T05:35:52.216Z,99889.03
2023-05-23T05:38:19.696Z,99895.75
2023-05-23T05:40:47.375Z,99888.06
2023-05-23T05:43:15.029Z,99886.00
2023-05-23T05:45:42.514Z,99881.19
2023-05-23T05:48:11.820Z,99883.63
2023-05-23T05:50:39.922Z,99886.00
2023-05-23T05:53:08.182Z,99883.28
2023-05-23T05:55:36.843Z,99896.19
2023-05-23T05:58:04.606Z,99890.91
2023-05-23T06:00:33.234Z,99892.97
2023-05-23T06:03:00.717Z,99901.06
2023-05-23T06:05:29.557Z,99899.06
2023-05-23T06:07:57.015Z,99896.63
2023-05-23T06:10:24.954Z,99901.00
2023-05-23T06:13:10.706Z,99900.59
2023-05-23T06:15:38.225Z,99902.34
2023-05-23T06:18:05.846Z,99904.81
2023-05-23T06:20:34.628Z,99905.31
2023-05-23T06:23:05.417Z,99907.88
2023-05-23T06:25:32.942Z,99897.69
2023-05-23T06:28:00.840Z,99921.25
2023-05-23T06:30:29.428Z,99910.28
2023-05-23T06:32:57.022Z,99914.75
2023-05-23T06:35:24.486Z,99911.88
2023-05-23T06:37:53.212Z,99926.50
2023-05-23T06:40:20.899Z,99926.47
2023-05-23T06:42:48.560Z,99920.41
2023-05-23T06:45:16.717Z,99924.81
2023-05-23T06:47:45.874Z,99932.50
2023-05-23T06:50:13.358Z,99927.69
2023-05-23T06:52:42.675Z,99928.88
2023-05-23T06:55:14.501Z,99938.56
2023-05-23T06:57:41.970Z,99941.41
2023-05-23T07:00:10.492Z,99943.00
2023-05-23T07:02:37.918Z,99929.53
2023-05-23T07:05:06.221Z,99937.75
2023-05-23T07:07:33.713Z,99932.72
2023-05-23T07:10:01.173Z,99930.19
2023-05-23T07:12:29.949Z,99930.78
2023-05-23T07:14:57.617Z,99932.31
2023-05-23T07:17:25.523Z,99934.13
2023-05-23T07:19:52.938Z,99934.19
2023-05-23T07:22:20.458Z,99933.56
2023-05-23T07:24:47.922Z,99933.59
2023-05-23T07:27:15.360Z,99934.19
2023-05-23T07:29:44.114Z,99947.38
2023-05-23T07:32:11.586Z,99939.84
2023-05-23T07:34:39.122Z,99950.31
2023-05-23T07:37:06.913Z,99944.34
2023-05-23T07:39:34.609Z,99949.34
2023-05-23T07:42:02.037Z,99934.50
2023-05-23T07:44:29.676Z,99945.69
2023-05-23T07:46:58.531Z,99940.84
2023-05-23T07:49:26.667Z,99940.56
2023-05-23T07:51:54.081Z,99939.94
2023-05-23T07:54:21.483Z,99946.88
2023-05-23T07:56:48.870Z,99948.78
2023-05-23T07:59:16.703Z,99945.09
2023-05-23T08:01:44.830Z,99930.25
2023-05-23T08:04:13.769Z,99942.69
2023-05-23T08:06:48.746Z,99938.44
2023-05-23T08:09:19.466Z,99943.63
2023-05-23T08:11:46.867Z,99934.56
2023-05-23T08:14:14.680Z,99943.75
2023-05-23T08:16:42.642Z,99936.38
2023-05-23T08:19:10.216Z,99939.97
2023-05-23T08:21:38.960Z,99943.91
2023-05-23T08:24:06.658Z,99942.31
2023-05-23T08:26:34.935Z,99943.09
2023-05-23T08:29:03.708Z,99938.06
2023-05-23T08:31:31.199Z,99944.13
2023-05-23T08:33:58.845Z,99950.81
2023-05-23T08:36:26.392Z,99956.78
2023-05-23T08:38:55.581Z,99944.47
2023-05-23T08:41:24.945Z,99961.66
2023-05-23T08:43:52.677Z,99961.16
2023-05-23T08:46:20.308Z,99959.06
2023-05-23T08:48:54.654Z,99964.59
2023-05-23T08:51:23.394Z,99969.44
2023-05-23T08:53:53.588Z,99962.41
2023-05-23T08:56:23.000Z,99963.97
2023-05-23T08:58:53.155Z,99969.50
2023-05-23T09:01:21.590Z,99974.22
2023-05-23T09:03:50.301Z,99972.28
2023-05-23T09:06:18.851Z,99976.16
2023-05-23T09:08:46.659Z,99981.41
2023-05-23T09:11:14.738Z,99970.38
2023-05-23T09:13:43.464Z,99973.94
2023-05-23T09:16:12.644Z,99984.66
2023-05-23T09:18:42.435Z,99981.72
2023-05-23T09:21:10.728Z,99989.59
2023-05-23T09:23:40.572Z,99989.16
2023-05-23T09:26:11.589Z,99985.50
2023-05-23T09:28:40.418Z,99986.97
2023-05-23T09:31:10.498Z,99989.88
2023-05-23T09:33:41.031Z,99996.72
2023-05-23T09:36:08.867Z,99994.59
2023-05-23T09:38:39.363Z,99988.13
2023-05-23T09:41:07.217Z,99998.56
2023-05-23T09:43:34.644Z,99999.78
2023-05-23T09:46:02.886Z,100003.94
2023-05-23T09:48:32.150Z,99993.81
2023-05-23T09:51:01.110Z,100004.31
2023-05-23T09:53:30.814Z,100012.97
2023-05-23T09:56:00.449Z,100017.63
2023-05-23T09:58:29.144Z,100018.47
2023-05-23T10:00:58.079Z,100024.41
2023-05-23T10:03:32.226Z,100023.41
2023-05-23T10:06:09.622Z,100022.75
2023-05-23T10:08:40.856Z,100029.34
2023-05-23T10:11:50.361Z,100040.59
2023-05-23T10:14:18.714Z,100037.50
2023-05-23T10:16:56.560Z,100031.41
2023-05-23T10:19:26.338Z,100043.88
2023-05-23T10:22:01.593Z,100037.28
2023-05-23T10:24:30.128Z,100034.00
2023-05-23T10:26:59.020Z,100043.47
2023-05-23T10:29:27.560Z,100042.97
2023-05-23T10:31:56.414Z,100047.88
2023-05-23T10:34:28.794Z,100049.88
2023-05-23T10:37:01.989Z,100043.25
2023-05-23T10:39:41.506Z,100049.97
2023-05-23T10:42:17.648Z,100045.34
2023-05-23T10:44:45.168Z,100038.78
2023-05-23T10:47:13.064Z,100048.44
2023-05-23T10:49:42.307Z,100052.13
2023-05-23T10:52:13.780Z,100056.66
2023-05-23T10:54:45.556Z,100061.13
2023-05-23T10:57:17.528Z,100060.69
2023-05-23T10:59:46.901Z,100058.75
2023-05-23T11:02:16.292Z,100069.19
2023-05-23T11:04:43.905Z,100071.91
2023-05-23T11:07:31.143Z,100071.13
2023-05-23T11:10:05.582Z,100067.56
2023-05-23T11:13:08.123Z,100065.31
2023-05-23T11:15:45.052Z,100066.78
2023-05-23T11:18:21.362Z,100064.84
2023-05-23T11:20:52.358Z,100065.81
2023-05-23T11:23:23.451Z,100065.19
2023-05-23T11:25:52.240Z,100066.78
2023-05-23T11:28:19.881Z,100058.28
2023-05-23T11:30:50.306Z,100057.50
2023-05-23T11:33:18.743Z,100054.59
2023-05-23T11:35:47.844Z,100061.91
2023-05-23T11:38:16.624Z,100055.97
2023-05-23T11:40:47.335Z,100059.19
2023-05-23T11:43:15.759Z,100062.44
2023-05-23T11:45:43.896Z,100068.91
2023-05-23T11:48:12.769Z,100059.50
2023-05-23T11:50:49.623Z,100066.09
2023-05-23T11:53:20.505Z,100059.34
2023-05-23T11:55:56.563Z,100064.13
2023-05-23T11:58:27.060Z,100063.69
2023-05-23T12:00:59.903Z,100062.06
2023-05-23T12:03:27.605Z,100072.75
2023-05-23T12:05:56.088Z,100066.47
2023-05-23T12:08:23.676Z,100071.50
2023-05-23T12:10:54.279Z,100067.50
2023-05-23T12:13:25.160Z,100061.34
2023-05-23T12:15:57.613Z,100056.41
2023-05-23T12:18:25.512Z,100062.41
2023-05-23T12:20:53.337Z,100066.97
2023-05-23T12:23:22.096Z,100053.75
2023-05-23T12:25:53.262Z,100064.13
2023-05-23T12:28:20.901Z,100057.97
2023-05-23T12:30:49.510Z,100053.75
2023-05-23T12:33:19.552Z,100056.13
2023-05-23T12:35:47.074Z,100052.59
2023-05-23T12:38:17.254Z,100064.97
2023-05-23T12:40:44.723Z,100053.91
2023-05-23T12:43:16.253Z,100068.25
2023-05-23T12:45:43.984Z,100077.53
2023-05-23T12:48:12.802Z,100061.50
2023-05-23T12:50:43.571Z,100071.63
2023-05-23T12:53:11.364Z,100074.94
2023-05-23T12:55:39.175Z,100078.97
2023-05-23T12:58:07.153Z,100075.69
2023-05-23T13:00:35.884Z,100078.09
2023-05-23T13:03:03.378Z,100082.91
2023-05-23T13:05:30.867Z,100100.88
2023-05-23T13:07:59.508Z,100085.91
2023-05-23T13:10:27.746Z,100091.63
2023-05-23T13:12:56.376Z,100093.16
2023-05-23T13:15:23.838Z,100094.44
2023-05-23T13:17:52.891Z,100098.91
2023-05-23T13:20:20.474Z,100094.06
2023-05-23T13:22:49.572Z,100101.69
2023-05-23T13:25:17.166Z,100106.19
2023-05-23T13:27:49.264Z,100103.69
2023-05-23T13:30:17.217Z,100108.56
2023-05-23T13:32:49.567Z,100110.97
2023-05-23T13:35:22.596Z,100117.84
2023-05-23T13:37:50.162Z,100108.94
2023-05-23T13:40:22.546Z,100112.94
2023-05-23T13:42:53.576Z,100115.03
2023-05-23T13:45:22.560Z,100125.59
2023-05-23T13:47:50.409Z,100125.91
2023-05-23T13:50:18.395Z,100120.44
2023-05-23T13:52:49.293Z,100129.94
2023-05-23T13:58:09.855Z,100143.03
2023-05-23T14:00:37.667Z,100136.84
2023-05-23T14:03:05.228Z,100135.63
2023-05-23T14:05:34.624Z,100140.28
2023-05-23T14:08:04.360Z,100144.03
2023-05-23T14:10:36.575Z,100147.97
2023-05-23T14:13:04.019Z,100151.44
2023-05-23T14:15:33.622Z,100152.09
2023-05-23T14:18:02.049Z,100146.44
2023-05-23T14:20:29.855Z,100145.06
2023-05-23T14:22:57.290Z,100152.69
2023-05-23T14:25:26.224Z,100154.06
2023-05-23T14:27:55.605Z,100152.38
2023-05-23T14:30:23.052Z,100142.31
2023-05-23T14:32:50.579Z,100146.81
2023-05-23T14:35:18.191Z,100154.19
2023-05-23T14:37:46.292Z,100143.88
2023-05-23T14:40:17.555Z,100153.75
2023-05-23T14:42:46.329Z,100160.00
2023-05-23T14:45:14.456Z,100163.19
2023-05-23T14:47:43.289Z,100152.97
2023-05-23T14:50:11.988Z,100163.31
2023-05-23T14:52:42.564Z,100169.69
2023-05-23T14:55:10.067Z,100167.25
2023-05-23T14:57:37.551Z,100161.84
2023-05-23T15:00:08.036Z,100178.41
2023-05-23T15:02:37.627Z,100172.84
2023-05-23T15:05:05.500Z,100170.56
2023-05-23T15:07:33.298Z,100176.19
2023-05-23T15:10:00.875Z,100170.94
2023-05-23T15:12:29.255Z,100166.94
2023-05-23T15:15:03.231Z,100174.94
2023-05-23T15:17:33.550Z,100182.66
2023-05-23T15:20:01.061Z,100167.50
2023-05-23T15:25:03.664Z,100180.78
2023-05-23T15:27:31.428Z,100180.19
2023-05-23T15:29:59.002Z,100177.84
2023-05-23T15:32:26.562Z,100180.44
2023-05-23T15:34:55.504Z,100182.56
2023-05-23T15:37:23.063Z,100180.53
2023-05-23T15:39:50.720Z,100182.59
2023-05-23T15:42:18.180Z,100176.31
2023-05-23T15:44:47.541Z,100180.19
2023-05-23T15:47:18.557Z,100174.41
2023-05-23T15:49:45.987Z,100184.88
2023-05-23T15:52:14.830Z,100190.66
2023-05-23T15:54:42.281Z,100198.47
2023-05-23T15:57:11.541Z,100200.34
2023-05-23T15:59:40.099Z,100192.50
2023-05-23T16:02:10.155Z,100195.88
2023-05-23T16:04:38.826Z,100191.28
2023-05-23T16:07:06.462Z,100201.69
2023-05-23T16:09:35.433Z,100209.53
2023-05-23T16:12:02.925Z,100206.16
2023-05-23T16:14:31.239Z,100204.91
2023-05-23T16:17:02.737Z,100214.41
2023-05-23T16:19:35.768Z,100219.06
2023-05-23T16:22:03.374Z,100221.44
2023-05-23T16:24:30.906Z,100214.78
2023-05-23T16:27:00.317Z,100222.69
2023-05-23T16:29:27.796Z,100229.97
2023-05-23T16:31:55.293Z,100224.50
2023-05-23T16:34:24.538Z,100226.03
2023-05-23T16:36:51.971Z,100229.53
2023-05-23T16:39:19.455Z,100220.91
2023-05-23T16:41:50.841Z,100230.34
2023-05-23T16:44:19.611Z,100227.34
2023-05-23T16:46:47.127Z,100220.28
2023-05-23T16:49:14.571Z,100224.97
2023-05-23T16:51:42.107Z,100226.25
2023-05-23T16:54:09.760Z,100229.09
2023-05-23T16:56:38.934Z,100227.97
2023-05-23T16:59:06.642Z,100215.94
2023-05-23T17:01:38.576Z,100222.91
2023-05-23T17:04:09.572Z,100225.09
2023-05-23T17:06:37.352Z,100233.34
2023-05-23T17:09:08.520Z,100242.66
2023-05-23T17:11:37.528Z,100240.22
2023-05-23T17:14:05.213Z,100247.97
2023-05-23T17:16:36.618Z,100235.66
2023-05-23T17:19:05.621Z,100249.94
2023-05-23T17:21:33.531Z,100264.00
2023-05-23T17:24:02.568Z,100255.31
2023-05-23T17:26:31.527Z,100262.78
2023-05-23T17:28:59.062Z,100271.06
2023-05-23T17:31:30.864Z,100276.69
2023-05-23T17:33:58.599Z,100284.06
2023-05-23T17:39:19.190Z,100287.75
2023-05-23T17:41:46.681Z,100289.72
2023-05-23T17:44:14.105Z,100295.78
2023-05-23T17:46:41.732Z,100303.78
2023-05-23T17:49:09.259Z,100298.38
2023-05-23T17:51:38.381Z,100297.06
2023-05-23T17:54:09.528Z,100324.59
2023-05-23T17:56:37.418Z,100317.53
2023-05-23T17:59:05.491Z,100320.03
2023-05-23T18:01:34.223Z,100310.72
2023-05-23T18:04:05.607Z,100324.03
2023-05-23T18:06:33.080Z,100326.03
2023-05-23T18:09:01.908Z,100331.94
2023-05-23T18:11:30.336Z,100327.00
2023-05-23T18:13:57.737Z,100331.16
2023-05-23T18:16:25.156Z,100331.69
2023-05-23T18:18:52.669Z,100337.00
2023-05-23T18:21:20.275Z,100334.66
2023-05-23T18:23:47.778Z,100339.25
2023-05-23T18:26:16.496Z,100347.28
2023-05-23T18:28:43.958Z,100357.28
2023-05-23T18:31:11.528Z,100350.72
2023-05-23T18:33:39.054Z,100356.88
2023-05-23T18:36:07.135Z,100359.78
2023-05-23T18:38:34.656Z,100370.63
2023-05-23T18:41:02.229Z,100365.84
2023-05-23T18:43:32.531Z,100380.22
2023-05-23T18:46:00.063Z,100384.91
2023-05-23T18:48:27.528Z,100391.22
2023-05-23T18:50:54.941Z,100400.09
2023-05-23T18:53:25.501Z,100401.19
2023-05-23T18:55:52.907Z,100392.53
2023-05-23T18:58:20.533Z,100398.53
2023-05-23T19:00:49.450Z,100408.88
2023-05-23T19:03:17.636Z,100416.13
2023-05-23T19:05:48.511Z,100416.06
2023-05-23T19:08:16.140Z,100421.66
2023-05-23T19:10:47.519Z,100417.88
2023-05-23T19:13:16.885Z,100430.38
2023-05-23T19:15:46.632Z,100418.00
2023-05-23T19:18:18.527Z,100432.69
2023-05-23T19:20:46.863Z,100446.88
2023-05-23T19:23:14.741Z,100441.19
2023-05-23T19:25:42.959Z,100439.91
2023-05-23T19:28:13.520Z,100462.38
2023-05-23T19:30:41.090Z,100470.44
2023-05-23T19:33:08.823Z,100476.97
2023-05-23T19:35:41.581Z,100479.41
2023-05-23T19:38:09.074Z,100475.94
2023-05-23T19:40:36.848Z,100484.22
2023-05-23T19:45:55.356Z,100486.06
2023-05-23T19:48:22.896Z,100493.06
2023-05-23T19:50:51.652Z,100497.28
2023-05-23T19:53:19.126Z,100503.13
2023-05-23T19:55:46.565Z,100506.56
2023-05-23T19:58:17.486Z,100507.19
2023-05-23T20:00:45.185Z,100512.81
2023-05-23T20:03:12.735Z,100517.59
2023-05-23T20:06:04.215Z,100518.88
2023-05-23T20:08:33.039Z,100529.72
2023-05-23T20:11:00.485Z,100532.97
2023-05-23T20:13:28.416Z,100528.78
2023-05-23T20:15:55.896Z,100528.91
2023-05-23T20:18:23.602Z,100522.69
2023-05-23T20:20:51.075Z,100531.47
2023-05-23T20:23:18.609Z,100542.31
2023-05-23T20:25:50.507Z,100530.06
2023-05-23T20:28:18.034Z,100528.41
2023-05-23T20:30:45.935Z,100535.44
2023-05-23T20:33:15.488Z,100553.97
2023-05-23T20:35:43.482Z,100537.03
2023-05-23T20:38:11.395Z,100546.97
2023-05-23T20:40:38.901Z,100534.22
2023-05-23T20:43:07.684Z,100544.28
2023-05-23T20:45:35.122Z,100553.88
2023-05-23T20:48:02.565Z,100542.31
2023-05-23T20:50:31.336Z,100549.41
2023-05-23T20:53:00.674Z,100558.06
2023-05-23T20:55:29.554Z,100552.84
2023-05-23T20:57:56.976Z,100550.09
2023-05-23T21:00:25.808Z,100559.69
2023-05-23T21:02:56.705Z,100558.84
2023-05-23T21:05:24.388Z,100561.03
2023-05-23T21:07:51.819Z,100563.63
2023-05-23T21:10:22.465Z,100571.81
2023-05-23T21:12:50.842Z,100573.00
2023-05-23T21:15:19.063Z,100575.09
2023-05-23T21:17:48.070Z,100575.09
2023-05-23T21:20:16.184Z,100587.34
2023-05-23T21:22:43.715Z,100582.06
2023-05-23T21:25:14.486Z,100574.50
2023-05-23T21:27:42.155Z,100569.84
2023-05-23T21:30:10.664Z,100580.47
2023-05-23T21:32:38.182Z,100575.31
2023-05-23T21:35:08.518Z,100586.28
2023-05-23T21:37:36.049Z,100589.00
2023-05-23T21:40:03.656Z,100584.44
2023-05-23T21:42:31.700Z,100579.78
2023-05-23T21:44:59.110Z,100583.38
2023-05-23T21:47:26.551Z,100588.75
2023-05-23T21:49:54.080Z,100588.28
2023-05-23T21:52:23.373Z,100589.88
2023-05-23T21:54:51.602Z,100594.88
2023-05-23T21:57:19.059Z,100598.75
2023-05-23T21:59:48.472Z,100597.16
2023-05-23T22:02:15.971Z,100590.63
2023-05-23T22:04:44.764Z,100600.06
2023-05-23T22:07:12.338Z,100595.25
2023-05-23T22:09:41.209Z,100596.84
2023-05-23T22:12:08.976Z,100604.75
2023-05-23T22:14:36.399Z,100601.97
2023-05-23T22:17:04.271Z,100604.00
2023-05-23T22:19:31.814Z,100599.59
2023-05-23T22:21:59.274Z,100598.41
2023-05-23T22:24:26.688Z,100605.44
2023-05-23T22:26:55.933Z,100606.78
2023-05-23T22:29:24.134Z,100602.97
2023-05-23T22:31:51.622Z,100602.00
2023-05-23T22:34:19.262Z,100595.00
2023-05-23T22:36:47.833Z,100608.06
2023-05-23T22:39:15.278Z,100610.59
2023-05-23T22:41:42.771Z,100601.09
2023-05-23T22:44:11.866Z,100612.31
2023-05-23T22:46:39.650Z,100599.50
2023-05-23T22:49:08.779Z,100604.84
2023-05-23T22:51:36.195Z,100601.94
2023-05-23T22:54:03.938Z,100603.63
2023-05-23T22:56:31.375Z,100599.94
2023-05-23T22:58:58.868Z,100593.19
2023-05-23T23:01:27.682Z,100597.75
2023-05-23T23:03:55.239Z,100589.31
2023-05-23T23:06:22.682Z,100585.59
2023-05-23T23:08:50.542Z,100587.34
2023-05-23T23:11:18.123Z,100585.31
2023-05-23T23:13:45.795Z,100582.88
2023-05-23T23:16:13.251Z,100580.84
2023-05-23T23:18:42.202Z,100578.38
2023-05-23T23:21:09.609Z,100576.88
2023-05-23T23:23:38.268Z,100596.19
2023-05-23T23:26:05.726Z,100584.22
2023-05-23T23:28:33.158Z,100594.41
2023-05-23T23:31:00.897Z,100595.81
2023-05-23T23:33:28.355Z,100597.75
2023-05-23T23:35:57.671Z,100592.19
2023-05-23T23:38:25.085Z,100594.72
2023-05-23T23:40:52.487Z,100592.53
2023-05-23T23:43:19.905Z,100597.50
2023-05-23T23:45:47.387Z,100597.31
2023-05-23T23:48:14.932Z,100603.00
2023-05-23T23:50:42.660Z,100593.44
2023-05-23T23:53:12.541Z,100601.13
2023-05-23T23:55:40.027Z,100603.81
2023-05-23T23:58:07.464Z,100605.03
